Time;durP1;ratioP1;P1;durP2;ratioP2;P2;SDS_P1;SDS_P2;PMS_P1;PMS_P2;Temp;Humidity;BMP_temperature;BMP_pressure;BME280_temperature;BME280_humidity;BME280_pressure;Samples;Min_cycle;Max_cycle;Signal;HPM_P1;HPM_P2
2022/08/13 00:02:33;;;;;;;6.72;1.92;;;21.00;99.90;;;;;;5030499;28;20318;-80
2022/08/13 00:05:22;;;;;;;3.50;1.38;;;20.90;99.90;;;;;;5025684;28;20195;-79
2022/08/13 00:08:07;;;;;;;3.22;1.30;;;20.90;99.90;;;;;;5018995;28;20253;-80
2022/08/13 00:12:56;;;;;;;4.72;1.65;;;20.90;99.90;;;;;;5028928;28;20223;-80
2022/08/13 00:14:29;;;;;;;4.18;1.50;;;20.90;99.90;;;;;;5027707;28;20265;-79
2022/08/13 00:17:15;;;;;;;5.22;1.23;;;20.80;99.90;;;;;;5021789;28;20190;-79
2022/08/13 00:20:26;;;;;;;5.00;1.60;;;20.70;99.90;;;;;;5028769;28;20199;-80
2022/08/13 00:23:24;;;;;;;4.82;1.40;;;20.70;99.90;;;;;;5022506;28;20266;-80
2022/08/13 00:26:12;;;;;;;3.15;1.60;;;20.70;99.90;;;;;;5021395;28;20590;-81
2022/08/13 00:28:57;;;;;;;1.35;1.20;;;20.70;99.90;;;;;;5028897;28;20246;-80
2022/08/13 00:31:45;;;;;;;3.75;1.40;;;20.70;99.90;;;;;;5030087;28;20220;-81
2022/08/13 00:35:18;;;;;;;2.50;1.50;;;20.70;99.90;;;;;;5027941;28;20231;-80
2022/08/13 00:38:07;;;;;;;5.72;1.40;;;20.60;99.90;;;;;;5030063;28;20261;-80
2022/08/13 00:40:57;;;;;;;1.60;1.40;;;20.60;99.90;;;;;;5027015;28;20278;-79
2022/08/13 00:43:41;;;;;;;1.55;1.20;;;20.60;99.90;;;;;;5018624;28;20227;-80
2022/08/13 00:48:41;;;;;;;1.52;1.30;;;20.50;99.90;;;;;;5025528;28;20276;-80
2022/08/13 00:49:35;;;;;;;2.00;1.50;;;20.50;99.90;;;;;;5027269;28;20243;-80
2022/08/13 00:52:30;;;;;;;3.58;1.65;;;20.50;99.90;;;;;;5027651;28;20266;-85
2022/08/13 00:55:20;;;;;;;4.07;1.52;;;20.40;99.90;;;;;;5032617;28;20199;-80
2022/08/13 00:58:05;;;;;;;3.08;1.50;;;20.40;99.90;;;;;;5030809;28;20647;-80
2022/08/13 01:01:00;;;;;;;3.80;1.30;;;20.30;99.90;;;;;;5028414;28;20226;-79
2022/08/13 01:03:50;;;;;;;2.78;1.42;;;20.30;99.90;;;;;;5028734;28;20215;-80
2022/08/13 01:06:35;;;;;;;4.38;1.48;;;20.30;99.90;;;;;;5022304;28;20227;-80
2022/08/13 01:09:20;;;;;;;1.40;1.30;;;20.30;99.90;;;;;;5028505;28;20191;-79
2022/08/13 01:12:09;;;;;;;3.17;1.60;;;20.30;99.90;;;;;;5031806;28;20218;-81
2022/08/13 01:14:57;;;;;;;3.55;1.90;;;20.30;99.90;;;;;;5036402;28;20410;-81
2022/08/13 01:17:45;;;;;;;2.80;1.45;;;20.40;99.90;;;;;;5035667;28;20238;-80
2022/08/13 01:20:32;;;;;;;3.13;1.50;;;20.30;99.90;;;;;;5045716;28;20250;-80
2022/08/13 01:23:20;;;;;;;3.38;1.67;;;20.30;99.90;;;;;;5045795;28;20246;-81
2022/08/13 01:26:10;;;;;;;3.78;1.42;;;20.30;99.90;;;;;;5045228;28;20199;-81
2022/08/13 01:28:54;;;;;;;2.47;1.73;;;20.20;99.90;;;;;;5043503;28;20246;-80
2022/08/13 01:31:44;;;;;;;2.78;1.45;;;20.20;99.90;;;;;;5041469;28;20756;-81
2022/08/13 01:34:31;;;;;;;3.28;1.73;;;20.20;99.90;;;;;;5040390;28;20410;-79
2022/08/13 01:37:17;;;;;;;4.25;1.50;;;20.20;99.90;;;;;;5027856;28;20199;-80
2022/08/13 01:40:04;;;;;;;3.45;1.40;;;20.10;99.90;;;;;;5030653;28;20280;-81
2022/08/13 01:42:50;;;;;;;6.63;1.80;;;20.10;99.90;;;;;;5029196;28;20179;-80
2022/08/13 01:45:35;;;;;;;2.78;1.50;;;20.00;99.90;;;;;;5031806;28;20187;-80
2022/08/13 01:51:37;;;;;;;2.20;1.50;;;20.00;99.90;;;;;;5026516;28;20235;-80
2022/08/13 01:54:22;;;;;;;2.33;1.70;;;19.90;99.90;;;;;;5030207;28;20248;-79
2022/08/13 01:57:08;;;;;;;4.40;1.98;;;19.90;99.90;;;;;;5032905;28;20454;-79
2022/08/13 01:59:53;;;;;;;3.27;1.70;;;19.90;99.90;;;;;;5031674;28;20905;-80
2022/08/13 02:02:46;;;;;;;3.70;1.90;;;19.90;99.90;;;;;;5027003;28;20458;-79
2022/08/13 02:05:31;;;;;;;2.38;1.60;;;19.90;99.90;;;;;;5028026;28;20428;-81
2022/08/13 02:08:25;;;;;;;3.15;1.70;;;19.90;99.90;;;;;;5026822;28;20458;-80
2022/08/13 02:11:10;;;;;;;2.58;1.92;;;19.90;99.90;;;;;;5031804;28;20426;-80
2022/08/13 02:13:56;;;;;;;3.17;1.80;;;20.00;99.90;;;;;;5033111;28;20461;-79
2022/08/13 02:16:41;;;;;;;2.20;1.67;;;19.90;99.90;;;;;;5030437;28;20410;-78
2022/08/13 02:19:26;;;;;;;4.75;1.80;;;19.90;99.90;;;;;;5025395;28;20405;-80
2022/08/13 02:22:17;;;;;;;3.80;1.88;;;19.80;99.90;;;;;;5066033;22;20495;-79
2022/08/13 02:25:13;;;;;;;3.38;2.17;;;19.80;99.90;;;;;;4974247;28;20409;-79
2022/08/13 02:27:59;;;;;;;3.97;1.88;;;19.70;99.90;;;;;;4984466;28;20411;-78
2022/08/13 02:30:43;;;;;;;7.95;1.95;;;19.70;99.90;;;;;;4959913;28;20423;-80
2022/08/13 02:33:28;;;;;;;5.68;2.13;;;19.60;99.90;;;;;;4971968;28;20410;-79
2022/08/13 02:36:12;;;;;;;4.25;1.83;;;19.60;99.90;;;;;;4956999;28;20495;-79
2022/08/13 02:39:02;;;;;;;3.58;1.75;;;19.60;99.90;;;;;;4958016;28;20431;-79
2022/08/13 02:41:48;;;;;;;4.18;1.98;;;19.60;99.90;;;;;;4967846;28;20443;-79
2022/08/13 02:44:32;;;;;;;2.75;1.98;;;19.70;99.90;;;;;;4968996;28;20395;-79
2022/08/13 02:47:19;;;;;;;2.88;2.00;;;19.60;99.90;;;;;;4960775;28;20443;-78
2022/08/13 02:50:04;;;;;;;5.72;2.03;;;19.60;99.90;;;;;;4953742;28;20453;-78
2022/08/13 02:52:52;;;;;;;4.35;1.70;;;19.60;99.90;;;;;;4955543;28;20560;-78
2022/08/13 02:55:37;;;;;;;3.33;1.98;;;19.60;99.90;;;;;;4965492;28;20425;-78
2022/08/13 02:58:21;;;;;;;2.33;1.80;;;19.60;99.90;;;;;;4952943;28;20792;-78
2022/08/13 03:01:11;;;;;;;5.18;1.77;;;19.70;99.90;;;;;;4953037;28;20428;-78
2022/08/13 03:03:56;;;;;;;3.80;1.70;;;19.60;99.90;;;;;;4953095;28;20427;-78
2022/08/13 03:06:42;;;;;;;3.33;1.80;;;19.60;99.90;;;;;;4952051;28;20468;-78
2022/08/13 03:09:26;;;;;;;3.78;1.80;;;19.60;99.90;;;;;;4952666;28;20500;-78
2022/08/13 03:12:14;;;;;;;4.70;2.05;;;19.50;99.90;;;;;;4947295;28;20415;-78
2022/08/13 03:14:59;;;;;;;4.28;2.00;;;19.50;99.90;;;;;;4950238;28;20412;-78
2022/08/13 03:17:43;;;;;;;4.38;1.70;;;19.40;99.90;;;;;;4950861;28;20414;-78
2022/08/13 03:20:31;;;;;;;6.60;2.30;;;19.40;99.90;;;;;;4953153;28;20427;-79
2022/08/13 03:23:15;;;;;;;2.65;2.05;;;19.40;99.90;;;;;;4946048;28;20490;-80
2022/08/13 03:26:00;;;;;;;4.30;1.88;;;19.40;99.90;;;;;;4957731;28;20990;-79
2022/08/13 03:28:44;;;;;;;3.40;1.85;;;19.30;99.90;;;;;;4952090;28;20968;-79
2022/08/13 03:31:29;;;;;;;4.38;2.20;;;19.30;99.90;;;;;;4966693;28;20418;-79
2022/08/13 03:34:14;;;;;;;1.98;1.77;;;19.30;99.90;;;;;;4949907;28;20763;-79
2022/08/13 03:36:58;;;;;;;5.80;2.10;;;19.30;99.90;;;;;;4968971;28;20507;-79
2022/08/13 03:39:43;;;;;;;3.55;2.00;;;19.30;99.90;;;;;;4954747;28;20429;-79
2022/08/13 03:42:27;;;;;;;3.22;1.70;;;19.20;99.90;;;;;;4953106;28;20422;-79
2022/08/13 03:45:11;;;;;;;4.03;1.80;;;19.20;99.90;;;;;;4953993;28;20449;-79
2022/08/13 03:47:56;;;;;;;4.13;1.92;;;19.20;99.90;;;;;;4956931;28;20935;-79
2022/08/13 03:50:41;;;;;;;4.07;2.00;;;19.10;99.90;;;;;;4953559;28;20429;-80
2022/08/13 03:53:26;;;;;;;4.93;1.93;;;19.10;99.90;;;;;;4960237;28;20457;-79
2022/08/13 03:56:14;;;;;;;3.20;1.85;;;19.10;99.90;;;;;;4968588;28;20422;-79
2022/08/13 03:58:58;;;;;;;3.50;1.83;;;19.10;99.90;;;;;;4953744;28;20498;-79
2022/08/13 04:01:42;;;;;;;4.05;1.90;;;19.10;99.90;;;;;;4954803;28;20916;-79
2022/08/13 04:04:27;;;;;;;3.70;2.10;;;19.00;99.90;;;;;;4956876;28;20473;-79
2022/08/13 04:07:14;;;;;;;4.65;2.00;;;18.90;99.90;;;;;;4954530;28;20478;-79
2022/08/13 04:09:59;;;;;;;2.63;1.90;;;18.90;99.90;;;;;;4955445;28;20436;-79
2022/08/13 04:12:43;;;;;;;5.10;2.08;;;18.90;99.90;;;;;;4952197;28;20996;-79
2022/08/13 04:15:27;;;;;;;4.85;2.20;;;18.90;99.90;;;;;;4946801;28;20486;-79
2022/08/13 04:18:13;;;;;;;5.55;2.25;;;18.90;99.90;;;;;;4947827;28;20473;-80
2022/08/13 04:20:57;;;;;;;6.03;2.20;;;18.90;99.90;;;;;;4960167;28;20928;-78
2022/08/13 04:23:43;;;;;;;4.43;2.03;;;18.80;99.90;;;;;;4953346;28;20507;-78
2022/08/13 04:26:30;;;;;;;2.90;1.88;;;18.80;99.90;;;;;;4955919;28;20463;-79
2022/08/13 04:29:15;;;;;;;4.88;2.00;;;18.80;99.90;;;;;;4977518;28;20430;-78
2022/08/13 04:32:02;;;;;;;6.15;2.00;;;18.80;99.90;;;;;;4962193;28;20457;-79
2022/08/13 04:34:46;;;;;;;2.40;1.75;;;18.80;99.90;;;;;;4968766;28;20450;-80
2022/08/13 04:37:31;;;;;;;3.42;1.80;;;18.80;99.90;;;;;;4970234;28;20447;-79
2022/08/13 04:40:15;;;;;;;2.80;1.92;;;18.80;99.90;;;;;;4970604;28;20447;-79
2022/08/13 04:43:00;;;;;;;3.67;1.90;;;18.80;99.90;;;;;;4964692;28;20411;-79
2022/08/13 04:45:45;;;;;;;7.60;2.00;;;18.70;99.90;;;;;;4964489;28;20503;-79
2022/08/13 04:48:33;;;;;;;4.53;2.23;;;18.80;99.90;;;;;;4958778;28;20419;-79
2022/08/13 04:51:17;;;;;;;5.10;2.00;;;18.70;99.90;;;;;;4957973;28;20446;-78
2022/08/13 04:54:02;;;;;;;3.72;2.03;;;18.80;99.90;;;;;;4957212;28;20454;-79
2022/08/13 04:56:46;;;;;;;6.53;2.03;;;18.80;99.90;;;;;;4955473;28;20530;-78
2022/08/13 04:59:31;;;;;;;3.40;2.03;;;18.80;99.90;;;;;;4952822;28;20478;-78
2022/08/13 05:02:17;;;;;;;3.97;2.20;;;18.80;99.90;;;;;;4952372;28;20464;-79
2022/08/13 05:05:01;;;;;;;4.20;2.30;;;18.80;99.90;;;;;;4955912;28;20419;-79
2022/08/13 05:07:51;;;;;;;4.35;2.20;;;18.80;99.90;;;;;;4946510;28;20947;-80
2022/08/13 05:10:38;;;;;;;2.45;2.10;;;18.90;99.90;;;;;;4945224;28;20523;-79
2022/08/13 05:13:25;;;;;;;6.85;2.47;;;18.80;99.90;;;;;;4944517;28;20412;-79
2022/08/13 05:16:13;;;;;;;5.30;2.30;;;18.80;99.90;;;;;;4965296;28;20777;-78
2022/08/13 05:18:57;;;;;;;5.00;2.33;;;18.80;99.90;;;;;;4953525;28;20430;-79
2022/08/13 05:21:42;;;;;;;6.50;2.53;;;18.80;99.90;;;;;;4961852;28;20470;-79
2022/08/13 05:24:37;;;;;;;4.22;2.80;;;18.90;99.90;;;;;;4961105;28;20419;-79
2022/08/13 05:27:21;;;;;;;4.47;2.30;;;18.90;99.90;;;;;;4955393;28;20843;-79
2022/08/13 05:30:09;;;;;;;2.97;2.30;;;18.90;99.90;;;;;;4952528;28;20426;-79
2022/08/13 05:32:57;;;;;;;4.35;2.50;;;18.90;99.90;;;;;;4951638;28;20459;-79
2022/08/13 05:35:43;;;;;;;6.00;2.60;;;18.90;99.90;;;;;;4956216;28;20417;-78
2022/08/13 05:38:30;;;;;;;6.50;2.42;;;18.90;99.90;;;;;;4974024;28;20415;-80
2022/08/13 05:41:14;;;;;;;5.70;2.67;;;19.00;99.90;;;;;;4972769;28;20435;-79
2022/08/13 05:44:00;;;;;;;6.90;2.80;;;19.00;99.90;;;;;;4957086;28;20427;-79
2022/08/13 05:46:44;;;;;;;7.82;2.60;;;19.10;99.90;;;;;;4954293;28;20423;-79
2022/08/13 05:49:28;;;;;;;6.05;3.22;;;19.10;99.90;;;;;;4952299;28;20429;-79
2022/08/13 05:52:12;;;;;;;5.63;2.90;;;19.10;99.90;;;;;;4954609;28;20439;-79
2022/08/13 05:54:57;;;;;;;4.20;2.90;;;19.10;99.90;;;;;;4956299;28;20430;-79
2022/08/13 05:57:41;;;;;;;6.25;3.10;;;19.20;99.90;;;;;;4954176;28;20411;-80
2022/08/13 06:03:32;;;;;;;3.30;2.67;;;19.30;99.90;;;;;;4965274;28;20403;-79
2022/08/13 06:06:21;;;;;;;6.85;2.58;;;19.30;99.90;;;;;;4956693;28;20570;-79
2022/08/13 06:09:06;;;;;;;3.03;2.20;;;19.40;99.90;;;;;;4957602;28;20527;-80
2022/08/13 06:11:51;;;;;;;5.82;2.20;;;19.40;99.90;;;;;;4956769;28;20425;-79
2022/08/13 06:14:36;;;;;;;4.93;2.28;;;19.50;99.90;;;;;;4959468;28;20441;-79
2022/08/13 06:17:22;;;;;;;3.55;2.00;;;19.60;99.90;;;;;;4974959;28;20479;-79
2022/08/13 06:20:07;;;;;;;2.77;2.13;;;19.70;99.90;;;;;;4965193;28;21182;-79
2022/08/13 06:22:52;;;;;;;4.32;2.28;;;19.80;99.90;;;;;;4958752;28;20487;-79
2022/08/13 06:25:36;;;;;;;4.10;2.30;;;19.90;99.90;;;;;;4959562;28;20411;-80
2022/08/13 06:28:29;;;;;;;4.93;2.50;;;19.90;99.90;;;;;;4957131;28;20425;-80
2022/08/13 06:31:16;;;;;;;3.95;2.10;;;20.00;99.90;;;;;;4957983;28;20456;-79
2022/08/13 06:34:00;;;;;;;3.25;2.20;;;20.10;99.90;;;;;;4966276;28;21223;-79
2022/08/13 06:36:44;;;;;;;4.75;2.05;;;20.10;99.90;;;;;;4965303;28;20413;-79
2022/08/13 06:39:35;;;;;;;4.40;2.20;;;20.20;99.90;;;;;;4961871;28;20400;-80
2022/08/13 06:42:21;;;;;;;3.90;2.28;;;20.30;99.90;;;;;;4958093;28;20463;-79
2022/08/13 06:45:06;;;;;;;3.90;2.17;;;20.30;99.90;;;;;;4952748;28;20392;-79
2022/08/13 06:47:52;;;;;;;5.73;2.30;;;20.40;99.90;;;;;;4957605;28;20427;-78
2022/08/13 06:50:37;;;;;;;4.25;2.15;;;20.50;99.90;;;;;;4960439;28;21185;-79
2022/08/13 06:53:22;;;;;;;4.18;2.00;;;20.60;99.90;;;;;;4966216;28;20426;-81
2022/08/13 06:56:13;;;;;;;3.65;1.92;;;20.70;99.90;;;;;;4948295;28;20427;-80
2022/08/13 06:58:58;;;;;;;2.20;1.98;;;20.80;99.90;;;;;;4955570;28;20190;-80
2022/08/13 07:01:45;;;;;;;4.03;1.90;;;20.80;99.90;;;;;;4958539;28;20237;-79
2022/08/13 07:04:30;;;;;;;2.72;1.45;;;20.80;99.90;;;;;;4949651;28;20681;-78
2022/08/13 07:07:17;;;;;;;4.18;1.65;;;20.90;99.90;;;;;;4969838;28;20240;-78
2022/08/13 07:10:03;;;;;;;2.58;2.05;;;20.90;99.90;;;;;;4957021;28;20216;-78
2022/08/13 07:12:48;;;;;;;2.95;1.52;;;21.00;99.90;;;;;;4969264;28;20197;-78
2022/08/13 07:15:32;;;;;;;5.35;1.90;;;21.10;99.90;;;;;;4957238;28;20660;-78
2022/08/13 07:18:17;;;;;;;2.53;1.50;;;21.30;99.90;;;;;;4956184;28;20226;-78
2022/08/13 07:21:04;;;;;;;8.43;1.45;;;21.40;99.90;;;;;;4955467;28;20217;-78
2022/08/13 07:23:50;;;;;;;2.58;1.67;;;21.50;99.90;;;;;;4966775;28;20209;-77
2022/08/13 07:26:34;;;;;;;4.45;1.60;;;21.60;99.90;;;;;;4967929;28;20245;-77
2022/08/13 07:29:19;;;;;;;1.92;1.70;;;21.80;99.90;;;;;;4972472;28;20193;-81
2022/08/13 07:32:06;;;;;;;2.78;1.60;;;21.90;99.90;;;;;;4970213;28;20225;-80
2022/08/13 07:34:50;;;;;;;2.97;1.30;;;22.10;99.90;;;;;;4956835;28;20232;-78
2022/08/13 07:37:36;;;;;;;1.92;1.33;;;22.20;99.90;;;;;;4957186;28;20240;-78
2022/08/13 07:40:20;;;;;;;2.83;1.52;;;22.40;99.90;;;;;;4960384;28;20269;-78
2022/08/13 07:43:04;;;;;;;1.48;1.17;;;22.50;99.90;;;;;;4962279;28;20677;-78
2022/08/13 07:46:07;;;;;;;10.77;1.50;;;22.60;99.90;;;;;;4967773;28;20185;-79
2022/08/13 07:48:52;;;;;;;1.75;1.58;;;22.80;99.90;;;;;;4956003;28;20215;-78
2022/08/13 07:51:37;;;;;;;2.08;1.60;;;22.90;99.90;;;;;;4966583;28;20597;-78
2022/08/13 07:54:21;;;;;;;4.72;1.40;;;23.10;99.90;;;;;;4953757;28;20198;-77
2022/08/13 07:57:05;;;;;;;7.72;1.80;;;23.20;99.90;;;;;;4962369;28;20266;-78
2022/08/13 07:59:49;;;;;;;2.65;1.50;;;23.30;99.90;;;;;;4955911;28;20206;-77
2022/08/13 08:02:34;;;;;;;2.67;1.40;;;23.40;99.90;;;;;;4953209;28;20225;-79
2022/08/13 08:05:24;;;;;;;1.30;1.20;;;23.50;99.90;;;;;;4953012;28;20196;-77
2022/08/13 08:08:13;;;;;;;6.03;1.30;;;23.60;99.90;;;;;;4955927;28;20294;-77
2022/08/13 08:10:57;;;;;;;2.95;1.55;;;23.70;99.90;;;;;;4960352;28;20275;-78
2022/08/13 08:13:42;;;;;;;2.97;1.42;;;23.80;99.90;;;;;;4956675;28;20596;-77
2022/08/13 08:16:36;;;;;;;1.80;1.33;;;24.00;99.90;;;;;;4963051;28;20190;-78
2022/08/13 08:19:20;;;;;;;6.05;2.17;;;24.10;99.90;;;;;;4955335;28;20765;-78
2022/08/13 08:22:06;;;;;;;2.13;1.60;;;24.20;99.90;;;;;;4954420;28;20275;-78
2022/08/13 08:24:51;;;;;;;2.05;1.30;;;24.40;99.90;;;;;;4957781;28;20277;-78
2022/08/13 08:27:35;;;;;;;3.15;1.40;;;24.50;99.90;;;;;;4952751;28;20236;-77
2022/08/13 08:30:20;;;;;;;1.30;1.20;;;24.50;99.90;;;;;;4953208;28;20221;-78
2022/08/13 08:33:05;;;;;;;3.50;1.67;;;24.70;99.90;;;;;;4950345;28;20273;-78
2022/08/13 08:35:51;;;;;;;4.80;1.42;;;24.80;99.90;;;;;;4969952;28;20679;-78
2022/08/13 08:45:11;;;;;;;1.58;1.33;;;25.10;99.90;;;;;;4962288;28;20216;-78
2022/08/13 08:47:56;;;;;;;2.85;1.23;;;25.20;99.90;;;;;;4954462;28;20194;-78
2022/08/13 08:50:42;;;;;;;6.10;1.60;;;25.30;99.90;;;;;;4955890;28;20228;-79
2022/08/13 08:53:28;;;;;;;3.65;1.45;;;25.40;99.90;;;;;;4966334;28;20237;-78
2022/08/13 08:56:14;;;;;;;3.13;1.50;;;25.50;99.90;;;;;;4948351;28;20201;-78
2022/08/13 08:58:58;;;;;;;4.03;1.48;;;25.50;99.90;;;;;;4962838;28;20268;-78
2022/08/13 09:01:44;;;;;;;2.80;1.58;;;25.60;99.90;;;;;;4965636;28;20637;-78
2022/08/13 09:04:29;;;;;;;3.17;1.50;;;25.70;99.90;;;;;;4958251;28;20265;-78
2022/08/13 09:07:15;;;;;;;5.30;1.40;;;25.70;99.90;;;;;;4960609;28;20221;-79
2022/08/13 09:09:59;;;;;;;4.85;1.70;;;25.80;99.90;;;;;;4960270;28;20252;-79
2022/08/13 09:12:45;;;;;;;2.85;1.60;;;25.80;99.90;;;;;;4957301;28;20186;-83
2022/08/13 09:15:39;;;;;;;4.15;1.60;;;25.80;99.90;;;;;;4955077;28;20321;-82
2022/08/13 09:18:24;;;;;;;5.60;1.70;;;25.80;99.90;;;;;;4969077;28;20198;-80
2022/08/13 09:21:08;;;;;;;4.18;1.75;;;25.90;99.90;;;;;;4975043;28;20257;-78
2022/08/13 09:23:52;;;;;;;1.80;1.50;;;26.00;99.90;;;;;;4968459;28;20228;-78
2022/08/13 09:26:38;;;;;;;1.90;1.60;;;26.20;99.90;;;;;;4959277;28;22028;-78
2022/08/13 09:29:23;;;;;;;1.40;1.30;;;26.20;99.90;;;;;;4948097;28;20694;-78
2022/08/13 09:32:07;;;;;;;9.07;2.00;;;26.30;99.90;;;;;;4965475;28;20216;-79
2022/08/13 09:34:51;;;;;;;4.63;1.83;;;26.40;99.90;;;;;;4954542;28;20672;-78
2022/08/13 09:37:35;;;;;;;2.67;1.50;;;26.50;99.90;;;;;;4967523;28;20241;-79
2022/08/13 09:40:26;;;;;;;4.47;1.58;;;26.60;99.90;;;;;;4955418;28;20205;-78
2022/08/13 09:43:18;;;;;;;1.58;1.48;;;26.60;99.90;;;;;;4960668;28;20202;-78
2022/08/13 09:46:04;;;;;;;6.47;1.60;;;26.80;99.90;;;;;;4958620;28;20216;-79
2022/08/13 09:48:52;;;;;;;2.35;1.50;;;26.90;99.90;;;;;;4964322;28;20204;-79
2022/08/13 09:51:37;;;;;;;1.98;1.77;;;26.90;99.90;;;;;;4960039;28;20264;-79
2022/08/13 09:54:24;;;;;;;5.03;1.80;;;27.00;99.90;;;;;;4965379;28;20194;-78
2022/08/13 09:57:09;;;;;;;1.70;1.55;;;27.20;99.90;;;;;;4968102;28;20244;-79
2022/08/13 09:59:54;;;;;;;2.90;2.15;;;27.30;99.90;;;;;;4968669;28;20249;-79
2022/08/13 10:02:44;;;;;;;4.30;2.20;;;27.40;99.90;;;;;;4960187;28;20196;-79
2022/08/13 10:05:33;;;;;;;4.70;2.25;;;27.40;99.90;;;;;;4973521;28;20812;-79
2022/08/13 10:08:18;;;;;;;3.35;2.10;;;27.50;99.90;;;;;;4978225;28;20193;-79
2022/08/13 10:11:03;;;;;;;3.45;2.05;;;27.60;99.90;;;;;;4967994;28;20256;-79
2022/08/13 10:13:48;;;;;;;2.42;2.22;;;27.70;99.90;;;;;;4961404;28;20268;-79
2022/08/13 10:16:35;;;;;;;3.63;2.30;;;27.70;99.90;;;;;;4961703;28;20221;-79
2022/08/13 10:19:20;;;;;;;4.88;2.67;;;27.80;99.90;;;;;;4964485;28;20218;-79
2022/08/13 10:22:04;;;;;;;2.53;2.30;;;27.80;99.90;;;;;;4961262;28;20225;-79
2022/08/13 10:24:48;;;;;;;2.80;2.22;;;27.80;99.90;;;;;;4958297;28;20246;-79
2022/08/13 10:27:35;;;;;;;4.88;2.22;;;28.00;99.90;;;;;;4964740;28;20196;-79
2022/08/13 10:30:23;;;;;;;3.72;2.45;;;28.00;99.90;;;;;;4954002;28;20237;-79
2022/08/13 10:33:09;;;;;;;4.20;2.13;;;28.10;99.90;;;;;;4951847;28;20370;-79
2022/08/13 10:35:55;;;;;;;2.47;2.17;;;28.20;99.90;;;;;;4967418;28;20198;-79
2022/08/13 10:38:39;;;;;;;4.20;2.42;;;28.20;99.90;;;;;;4972019;28;20192;-79
2022/08/13 10:41:24;;;;;;;3.40;2.15;;;28.30;99.90;;;;;;4955752;28;20269;-79
2022/08/13 10:44:09;;;;;;;3.90;2.22;;;28.40;99.90;;;;;;4955445;28;20186;-79
2022/08/13 10:46:54;;;;;;;2.22;2.10;;;28.50;99.90;;;;;;4969135;28;20226;-79
2022/08/13 10:49:38;;;;;;;5.20;2.00;;;28.60;99.90;;;;;;4951803;28;20211;-78
2022/08/13 10:52:24;;;;;;;2.35;2.00;;;28.60;99.90;;;;;;4953845;28;20680;-78
2022/08/13 10:55:12;;;;;;;2.95;2.45;;;28.60;99.90;;;;;;4964015;28;20294;-78
2022/08/13 10:57:56;;;;;;;2.35;2.13;;;28.60;99.90;;;;;;4967600;28;20198;-78
2022/08/13 11:00:40;;;;;;;6.82;2.33;;;28.70;99.90;;;;;;4955226;28;20244;-78
2022/08/13 11:03:24;;;;;;;6.15;2.15;;;28.80;99.90;;;;;;4958561;28;20278;-78
2022/08/13 11:06:09;;;;;;;4.10;2.20;;;28.90;99.90;;;;;;4957839;28;20281;-78
2022/08/13 11:08:59;;;;;;;3.63;2.30;;;28.90;99.90;;;;;;4958369;28;20189;-79
2022/08/13 11:11:43;;;;;;;2.72;2.50;;;28.80;99.90;;;;;;4952611;28;20238;-78
2022/08/13 11:14:29;;;;;;;5.47;2.53;;;28.80;99.90;;;;;;4952169;28;20637;-79
2022/08/13 11:17:17;;;;;;;4.00;2.28;;;28.90;99.90;;;;;;4949224;28;20234;-78
2022/08/13 11:20:13;;;;;;;5.03;2.40;;;28.90;99.90;;;;;;4954797;28;20603;-78
2022/08/13 11:22:57;;;;;;;3.15;2.17;;;28.80;99.90;;;;;;4960004;28;20290;-78
2022/08/13 11:25:41;;;;;;;3.72;2.38;;;28.80;99.90;;;;;;4970501;28;20345;-78
2022/08/13 11:28:25;;;;;;;3.00;2.20;;;28.80;99.90;;;;;;4968503;28;20241;-78
2022/08/13 11:31:10;;;;;;;4.38;2.30;;;28.80;99.90;;;;;;4955961;28;20221;-78
2022/08/13 11:33:54;;;;;;;3.22;2.33;;;28.70;99.90;;;;;;4956430;28;20233;-78
2022/08/13 11:36:42;;;;;;;3.58;2.58;;;28.80;99.90;;;;;;4957673;28;20204;-78
2022/08/13 11:39:26;;;;;;;2.45;2.20;;;28.80;99.90;;;;;;4967403;28;20189;-78
2022/08/13 11:42:11;;;;;;;3.50;2.45;;;28.90;99.90;;;;;;4958085;28;20218;-78
2022/08/13 11:44:55;;;;;;;4.05;2.78;;;29.00;99.90;;;;;;4956931;28;20221;-78
2022/08/13 11:47:40;;;;;;;4.30;2.35;;;29.00;99.90;;;;;;4954301;28;20271;-78
2022/08/13 11:50:24;;;;;;;3.08;2.55;;;28.90;99.90;;;;;;4955028;28;20265;-78
2022/08/13 11:53:10;;;;;;;5.20;2.50;;;28.90;99.90;;;;;;4957853;28;20213;-78
2022/08/13 11:55:54;;;;;;;4.32;2.70;;;28.90;99.90;;;;;;4954396;28;20366;-78
2022/08/13 11:58:38;;;;;;;2.70;2.35;;;28.90;99.90;;;;;;4963811;28;20302;-78
2022/08/13 12:01:23;;;;;;;7.75;2.90;;;28.90;99.90;;;;;;4959902;28;20229;-78
2022/08/13 12:04:07;;;;;;;6.75;2.50;;;29.00;99.90;;;;;;4956234;28;20273;-78
2022/08/13 12:06:51;;;;;;;3.10;2.80;;;29.10;99.90;;;;;;4951529;28;20225;-78
2022/08/13 12:09:35;;;;;;;5.00;2.63;;;29.30;99.90;;;;;;4950816;28;20232;-78
2022/08/13 12:12:20;;;;;;;3.10;2.80;;;29.30;99.90;;;;;;4960901;28;20217;-78
2022/08/13 12:15:05;;;;;;;2.92;2.45;;;29.40;99.90;;;;;;4956764;28;20198;-78
2022/08/13 12:17:49;;;;;;;5.35;2.70;;;29.40;99.90;;;;;;4951771;28;20278;-79
2022/08/13 12:20:34;;;;;;;3.75;2.80;;;29.50;99.90;;;;;;4967347;28;20217;-78
2022/08/13 12:23:18;;;;;;;4.43;2.70;;;29.40;99.90;;;;;;4954390;28;20213;-78
2022/08/13 12:26:02;;;;;;;6.32;2.85;;;29.50;99.90;;;;;;4950589;28;20241;-79
2022/08/13 12:28:46;;;;;;;4.30;2.83;;;29.50;99.90;;;;;;4956113;28;20244;-79
2022/08/13 12:31:30;;;;;;;4.35;3.17;;;29.50;99.90;;;;;;4958292;28;20768;-79
2022/08/13 12:34:14;;;;;;;3.00;2.63;;;29.60;99.90;;;;;;4952695;28;20209;-78
2022/08/13 12:36:58;;;;;;;6.32;3.10;;;29.70;99.90;;;;;;4955523;28;20206;-76
2022/08/13 12:39:42;;;;;;;3.65;2.40;;;29.80;99.90;;;;;;4957365;28;20216;-78
2022/08/13 12:42:27;;;;;;;3.70;2.67;;;29.80;99.90;;;;;;4962338;28;20209;-78
2022/08/13 12:45:13;;;;;;;5.13;2.90;;;29.80;99.90;;;;;;4966459;28;20197;-78
2022/08/13 12:48:12;;;;;;;6.13;2.58;;;29.80;99.90;;;;;;4957233;28;20189;-78
2022/08/13 12:50:56;;;;;;;2.90;2.70;;;29.90;99.90;;;;;;4958626;28;20663;-78
2022/08/13 12:53:41;;;;;;;3.50;2.70;;;29.90;99.90;;;;;;4967331;28;20229;-78
2022/08/13 12:56:25;;;;;;;3.75;3.00;;;29.90;99.90;;;;;;4957976;28;20212;-78
2022/08/13 12:59:09;;;;;;;4.93;2.67;;;29.90;99.90;;;;;;4968510;28;20193;-79
2022/08/13 13:01:54;;;;;;;3.40;2.65;;;29.90;99.90;;;;;;4954397;28;20715;-78
2022/08/13 13:04:43;;;;;;;6.03;2.88;;;29.80;99.90;;;;;;4953963;28;20237;-78
2022/08/13 13:07:27;;;;;;;3.15;2.85;;;29.80;99.90;;;;;;4955068;28;20269;-78
2022/08/13 13:10:11;;;;;;;5.43;2.92;;;29.90;99.90;;;;;;4966947;28;20219;-78
2022/08/13 13:12:55;;;;;;;4.05;3.10;;;29.90;99.90;;;;;;4966016;28;20197;-78
2022/08/13 13:15:40;;;;;;;3.45;2.83;;;29.90;99.90;;;;;;4954599;28;20189;-78
2022/08/13 13:18:26;;;;;;;3.72;2.95;;;29.90;99.90;;;;;;4970510;28;20866;-78
2022/08/13 13:21:11;;;;;;;3.47;3.03;;;29.90;99.90;;;;;;4970427;28;20313;-79
2022/08/13 13:23:56;;;;;;;6.03;2.90;;;30.00;99.90;;;;;;4956388;28;20232;-78
2022/08/13 13:26:41;;;;;;;5.28;3.13;;;30.00;99.90;;;;;;4973357;28;20217;-78
2022/08/13 13:29:25;;;;;;;7.10;3.13;;;30.10;99.90;;;;;;4977024;28;20201;-79
2022/08/13 13:32:13;;;;;;;5.85;3.15;;;30.10;99.90;;;;;;4959914;28;20212;-79
2022/08/13 13:34:57;;;;;;;3.45;2.92;;;30.10;99.90;;;;;;4963256;28;21578;-79
2022/08/13 13:37:42;;;;;;;7.18;3.50;;;30.20;99.90;;;;;;4963996;28;20713;-79
2022/08/13 13:40:27;;;;;;;5.22;3.35;;;30.20;99.90;;;;;;4963100;28;20248;-84
2022/08/13 13:43:18;;;;;;;5.88;3.20;;;30.30;99.90;;;;;;4966055;28;20262;-81
2022/08/13 13:46:02;;;;;;;5.18;3.05;;;30.40;99.90;;;;;;4974855;28;20181;-81
2022/08/13 13:48:48;;;;;;;5.13;3.08;;;30.40;99.90;;;;;;4963328;28;20613;-81
2022/08/13 13:51:33;;;;;;;2.97;2.78;;;30.50;99.90;;;;;;4963345;28;20271;-81
2022/08/13 13:54:19;;;;;;;4.45;3.10;;;30.60;99.90;;;;;;4962867;28;20192;-81
2022/08/13 13:57:04;;;;;;;3.40;2.92;;;30.60;99.90;;;;;;4962036;28;20213;-84
2022/08/13 13:59:48;;;;;;;5.80;3.28;;;30.60;99.90;;;;;;4962237;28;20260;-83
2022/08/13 14:02:34;;;;;;;3.63;3.03;;;30.50;99.90;;;;;;4961608;28;20208;-83
2022/08/13 14:05:19;;;;;;;3.42;2.50;;;30.60;99.90;;;;;;4977826;28;20193;-79
2022/08/13 14:08:04;;;;;;;3.67;2.90;;;30.60;99.90;;;;;;4977005;28;20289;-80
2022/08/13 14:10:52;;;;;;;4.13;3.22;;;30.70;99.90;;;;;;4962389;28;20376;-82
2022/08/13 14:13:36;;;;;;;3.80;2.80;;;30.70;99.90;;;;;;4961605;28;20230;-83
2022/08/13 14:16:20;;;;;;;4.40;2.92;;;30.70;99.90;;;;;;4965273;28;20200;-82
2022/08/13 14:19:04;;;;;;;5.68;2.90;;;30.60;99.90;;;;;;4963528;28;20186;-83
2022/08/13 14:21:51;;;;;;;4.85;3.15;;;30.70;99.90;;;;;;4959639;28;20231;-82
2022/08/13 14:24:40;;;;;;;4.57;3.28;;;30.60;99.90;;;;;;4972270;28;20189;-83
2022/08/13 14:27:26;;;;;;;4.10;2.97;;;30.70;99.90;;;;;;4960341;28;20236;-82
2022/08/13 14:30:11;;;;;;;5.95;2.88;;;30.70;99.90;;;;;;4959108;28;20265;-82
2022/08/13 14:32:56;;;;;;;4.80;3.15;;;30.70;99.90;;;;;;4957170;28;20264;-83
2022/08/13 14:35:42;;;;;;;5.45;3.45;;;30.60;99.90;;;;;;4959963;28;20236;-82
2022/08/13 14:38:26;;;;;;;4.28;3.08;;;30.60;99.90;;;;;;4977011;28;20248;-83
2022/08/13 14:41:11;;;;;;;7.38;3.67;;;30.60;99.90;;;;;;4959434;28;20244;-82